YXCB weather

Canberra Hospital Helipad
Canberra, Australian Capital Territory, Australia

Public forecast

Using degrees Celsius for public forecast. Weather courtesy of forecast.io.

METAR (pilot weather report)

Closest report is Canberra International Airport, 5.2 nm (9.5 km) ENE. Retrieved 2019/03/18 16:30 UTC (56 minutes ago):

YSCB 181630Z AUTO 15005KT 9999 // OVC040 17/15 Q1014 RF00.0/000.0

TAF (pilot weather forecast)

Closest forecast is Canberra International Airport, 5.2 nm (9.5 km) ENE. Retrieved 2019/03/18 12:00 UTC (5 hours ago):

TAF YSCB 181106Z 1812/1912 14010KT 9999 SCT020 BKN035 BECMG 1812/1813 14012KT 9999 SCT015 BKN025 FM182200 16011KT 9999 SCT030 SCT045 FM190200 15012KT 9999 -SHRA SCT025 BKN035 FM191000 14010KT 9999 SCT025 BKN040 TEMPO 1812/1820 9999 BKN015